createdAt,value
2018-09-29T00:00:11.871Z,1023.24
2018-09-29T00:01:11.846Z,1023.24
2018-09-29T00:02:11.844Z,1023.26
2018-09-29T00:03:12.029Z,1023.29
2018-09-29T00:04:11.763Z,1023.27
2018-09-29T00:05:11.739Z,1023.32
2018-09-29T00:06:11.700Z,1023.32
2018-09-29T00:07:11.676Z,1023.31
2018-09-29T00:08:11.685Z,1023.31
2018-09-29T00:09:11.841Z,1023.34
2018-09-29T00:10:11.663Z,1023.31
2018-09-29T00:11:11.572Z,1023.30
2018-09-29T00:12:11.546Z,1023.32
2018-09-29T00:13:11.519Z,1023.32
2018-09-29T00:14:11.500Z,1023.31
2018-09-29T00:15:11.466Z,1023.32
2018-09-29T00:16:11.445Z,1023.35
2018-09-29T00:17:11.408Z,1023.30
2018-09-29T00:18:11.390Z,1023.30
2018-09-29T00:19:11.354Z,1023.32
2018-09-29T00:20:11.330Z,1023.31
2018-09-29T00:21:11.512Z,1023.31
2018-09-29T00:22:11.280Z,1023.30
2018-09-29T00:23:11.428Z,1023.30
2018-09-29T00:24:11.213Z,1023.32
2018-09-29T00:25:11.439Z,1023.30
2018-09-29T00:26:11.175Z,1023.31
2018-09-29T00:27:11.136Z,1023.33
2018-09-29T00:28:11.099Z,1023.35
2018-09-29T00:29:12.181Z,1023.28
2018-09-29T00:30:11.147Z,1023.33
2018-09-29T00:31:11.035Z,1023.34
2018-09-29T00:32:10.998Z,1023.33
2018-09-29T00:33:10.977Z,1023.36
2018-09-29T00:34:10.945Z,1023.35
2018-09-29T00:35:10.923Z,1023.33
2018-09-29T00:36:11.000Z,1023.30
2018-09-29T00:37:10.880Z,1023.29
2018-09-29T00:38:10.922Z,1023.33
2018-09-29T00:39:10.809Z,1023.31
2018-09-29T00:40:10.792Z,1023.31
2018-09-29T00:41:10.760Z,1023.32
2018-09-29T00:42:10.730Z,1023.31
2018-09-29T00:43:10.695Z,1023.36
2018-09-29T00:44:10.675Z,1023.41
2018-09-29T00:45:10.648Z,1023.32
2018-09-29T00:46:10.627Z,1023.34
2018-09-29T00:47:10.602Z,1023.35
2018-09-29T00:48:10.564Z,1023.36
2018-09-29T00:49:10.534Z,1023.33
2018-09-29T00:50:10.515Z,1023.32
2018-09-29T00:51:10.480Z,1023.25
2018-09-29T00:52:10.463Z,1023.27
2018-09-29T00:53:10.431Z,1023.28
2018-09-29T00:54:10.408Z,1023.28
2018-09-29T00:55:10.372Z,1023.30
2018-09-29T00:56:11.448Z,1023.32
2018-09-29T00:57:10.326Z,1023.33
2018-09-29T00:58:10.334Z,1023.35
2018-09-29T00:59:10.262Z,1023.37
2018-09-29T01:00:10.245Z,1023.34
2018-09-29T01:01:10.224Z,1023.37
2018-09-29T01:02:10.194Z,1023.35
2018-09-29T01:03:10.167Z,1023.38
2018-09-29T01:04:10.125Z,1023.32
2018-09-29T01:05:10.103Z,1023.29
2018-09-29T01:06:10.079Z,1023.27
2018-09-29T01:07:10.046Z,1023.28
2018-09-29T01:08:10.030Z,1023.24
2018-09-29T01:09:09.999Z,1023.24
2018-09-29T01:10:09.962Z,1023.21
2018-09-29T01:11:09.943Z,1023.21
2018-09-29T01:12:10.015Z,1023.22
2018-09-29T01:13:09.876Z,1023.22
2018-09-29T01:14:09.855Z,1023.21
2018-09-29T01:15:09.828Z,1023.21
2018-09-29T01:16:09.804Z,1023.21
2018-09-29T01:17:09.773Z,1023.23
2018-09-29T01:18:09.750Z,1023.20
2018-09-29T01:19:09.737Z,1023.19
2018-09-29T01:20:09.681Z,1023.18
2018-09-29T01:21:09.670Z,1023.18
2018-09-29T01:22:09.637Z,1023.15
2018-09-29T01:23:09.605Z,1023.14
2018-09-29T01:24:09.615Z,1023.16
2018-09-29T01:25:09.551Z,1023.14
2018-09-29T01:26:09.608Z,1023.14
2018-09-29T01:27:09.503Z,1023.17
2018-09-29T01:28:09.495Z,1023.29
2018-09-29T01:29:09.540Z,1023.29
2018-09-29T01:30:09.429Z,1023.33
2018-09-29T01:31:09.540Z,1023.30
2018-09-29T01:32:09.358Z,1023.30
2018-09-29T01:33:09.342Z,1023.27
2018-09-29T01:34:09.303Z,1023.27
2018-09-29T01:35:09.273Z,1023.30
2018-09-29T01:36:09.254Z,1023.31
2018-09-29T01:37:09.220Z,1023.30
2018-09-29T01:38:09.313Z,1023.31
2018-09-29T01:39:09.171Z,1023.29
2018-09-29T01:40:09.143Z,1023.29
2018-09-29T01:41:09.108Z,1023.30
2018-09-29T01:42:09.095Z,1023.28
2018-09-29T01:43:09.049Z,1023.32
2018-09-29T01:44:09.039Z,1023.33
2018-09-29T01:45:09.133Z,1023.35
2018-09-29T01:46:08.980Z,1023.33
2018-09-29T01:47:08.942Z,1023.35
2018-09-29T01:48:08.919Z,1023.37
2018-09-29T01:49:08.887Z,1023.34
2018-09-29T01:50:08.864Z,1023.32
2018-09-29T01:51:08.835Z,1023.28
2018-09-29T01:52:08.809Z,1023.31
2018-09-29T01:53:08.787Z,1023.26
2018-09-29T01:54:08.764Z,1023.28
2018-09-29T01:55:08.721Z,1023.26
2018-09-29T01:56:08.693Z,1023.28
2018-09-29T01:57:08.667Z,1023.28
2018-09-29T01:58:08.644Z,1023.27
2018-09-29T01:59:08.615Z,1023.29
2018-09-29T02:00:08.591Z,1023.30
2018-09-29T02:01:08.563Z,1023.29
2018-09-29T02:02:08.621Z,1023.27
2018-09-29T02:03:08.501Z,1023.26
2018-09-29T02:04:08.477Z,1023.29
2018-09-29T02:05:08.448Z,1023.30
2018-09-29T02:06:08.423Z,1023.29
2018-09-29T02:07:08.387Z,1023.30
2018-09-29T02:08:08.484Z,1023.27
2018-09-29T02:09:08.341Z,1023.27
2018-09-29T02:10:08.321Z,1023.28
2018-09-29T02:11:08.277Z,1023.30
2018-09-29T02:12:08.397Z,1023.32
2018-09-29T02:13:08.227Z,1023.26
2018-09-29T02:14:08.199Z,1023.24
2018-09-29T02:15:08.170Z,1023.21
2018-09-29T02:16:08.144Z,1023.17
2018-09-29T02:17:08.111Z,1023.23
2018-09-29T02:18:08.199Z,1023.28
2018-09-29T02:19:08.068Z,1023.25
2018-09-29T02:20:08.056Z,1023.27
2018-09-29T02:21:08.119Z,1023.26
2018-09-29T02:22:07.978Z,1023.27
2018-09-29T02:23:07.945Z,1023.27
2018-09-29T02:24:07.932Z,1023.32
2018-09-29T02:25:07.892Z,1023.31
2018-09-29T02:26:07.857Z,1023.28
2018-09-29T02:27:07.841Z,1023.24
2018-09-29T02:28:07.810Z,1023.25
2018-09-29T02:29:07.789Z,1023.24
2018-09-29T02:30:07.876Z,1023.24
2018-09-29T02:31:07.726Z,1023.19
2018-09-29T02:32:07.802Z,1023.19
2018-09-29T02:33:07.696Z,1023.20
2018-09-29T02:34:07.648Z,1023.19
2018-09-29T02:35:07.727Z,1023.17
2018-09-29T02:36:07.604Z,1023.20
2018-09-29T02:37:07.562Z,1023.20
2018-09-29T02:38:07.532Z,1023.21
2018-09-29T02:39:07.627Z,1023.22
2018-09-29T02:40:07.476Z,1023.25
2018-09-29T02:41:07.464Z,1023.22
2018-09-29T02:42:07.425Z,1023.21
2018-09-29T02:43:07.399Z,1023.20
2018-09-29T02:44:07.355Z,1023.16
2018-09-29T02:45:07.338Z,1023.19
2018-09-29T02:46:07.307Z,1023.19
2018-09-29T02:47:07.373Z,1023.20
2018-09-29T02:48:07.242Z,1023.18
2018-09-29T02:49:07.224Z,1023.21
2018-09-29T02:50:07.299Z,1023.20
2018-09-29T02:51:07.165Z,1023.16
2018-09-29T02:52:07.140Z,1023.16
2018-09-29T02:53:07.113Z,1023.14
2018-09-29T02:54:07.092Z,1023.12
2018-09-29T02:55:07.134Z,1023.18
2018-09-29T02:56:07.036Z,1023.15
2018-09-29T02:57:07.005Z,1023.14
2018-09-29T02:58:06.979Z,1023.14
2018-09-29T02:59:06.952Z,1023.14
2018-09-29T03:00:06.920Z,1023.11
2018-09-29T03:01:06.904Z,1023.11
2018-09-29T03:02:06.870Z,1023.08
2018-09-29T03:03:06.977Z,1023.13
2018-09-29T03:04:06.815Z,1023.17
2018-09-29T03:05:06.897Z,1023.15
2018-09-29T03:06:06.749Z,1023.14
2018-09-29T03:07:06.772Z,1023.12
2018-09-29T03:08:06.696Z,1023.09
2018-09-29T03:09:07.838Z,1023.13
2018-09-29T03:10:06.648Z,1023.12
2018-09-29T03:11:06.611Z,1023.15
2018-09-29T03:12:06.588Z,1023.12
2018-09-29T03:13:06.567Z,1023.13
2018-09-29T03:14:06.522Z,1023.10
2018-09-29T03:15:06.650Z,1023.09
2018-09-29T03:16:06.471Z,1023.09
2018-09-29T03:17:06.558Z,1023.09
2018-09-29T03:18:06.414Z,1023.09
2018-09-29T03:19:06.390Z,1023.14
2018-09-29T03:20:06.364Z,1023.08
2018-09-29T03:21:06.339Z,1023.07
2018-09-29T03:22:06.301Z,1023.04
2018-09-29T03:23:06.374Z,1023.11
2018-09-29T03:24:06.262Z,1023.09
2018-09-29T03:25:06.219Z,1023.07
2018-09-29T03:26:06.203Z,1023.10
2018-09-29T03:27:06.175Z,1023.06
2018-09-29T03:28:06.137Z,1023.09
2018-09-29T03:29:06.120Z,1023.07
2018-09-29T03:30:06.090Z,1023.05
2018-09-29T03:31:06.080Z,1023.05
2018-09-29T03:32:06.042Z,1023.08
2018-09-29T03:33:06.166Z,1023.05
2018-09-29T03:34:05.995Z,1023.02
2018-09-29T03:35:05.956Z,1022.99
2018-09-29T03:36:05.918Z,1023.02
2018-09-29T03:37:05.893Z,1023.03
2018-09-29T03:38:05.858Z,1022.94
2018-09-29T03:39:05.841Z,1023.00
2018-09-29T03:40:05.823Z,1023.02
2018-09-29T03:41:05.791Z,1023.01
2018-09-29T03:42:05.757Z,1023.00
2018-09-29T03:43:05.740Z,1023.03
2018-09-29T03:44:05.701Z,1023.03
2018-09-29T03:45:05.672Z,1022.98
2018-09-29T03:46:05.641Z,1023.05
2018-09-29T03:47:05.634Z,1023.01
2018-09-29T03:48:05.591Z,1023.01
2018-09-29T03:49:05.573Z,1023.06
2018-09-29T03:50:05.673Z,1023.06
2018-09-29T03:51:05.505Z,1023.06
2018-09-29T03:52:05.490Z,1023.05
2018-09-29T03:53:05.571Z,1022.99
2018-09-29T03:54:05.425Z,1022.98
2018-09-29T03:55:05.409Z,1022.96
2018-09-29T03:56:05.371Z,1023.05
2018-09-29T03:57:05.348Z,1023.07
2018-09-29T03:58:05.315Z,1023.00
2018-09-29T03:59:05.309Z,1023.00
2018-09-29T04:00:05.428Z,1023.02
2018-09-29T04:01:05.229Z,1022.98
2018-09-29T04:02:05.206Z,1022.94
2018-09-29T04:03:05.343Z,1022.90
2018-09-29T04:04:05.148Z,1022.98
2018-09-29T04:05:05.129Z,1022.91
2018-09-29T04:06:06.293Z,1022.89
2018-09-29T04:07:05.084Z,1022.95
2018-09-29T04:08:05.168Z,1022.99
2018-09-29T04:09:05.025Z,1023.05
2018-09-29T04:10:04.998Z,1022.99
2018-09-29T04:11:04.966Z,1022.97
2018-09-29T04:12:05.093Z,1023.02
2018-09-29T04:13:04.912Z,1023.00
2018-09-29T04:14:04.909Z,1022.97
2018-09-29T04:15:04.894Z,1022.98
2018-09-29T04:16:04.868Z,1022.95
2018-09-29T04:17:04.927Z,1022.99
2018-09-29T04:18:04.791Z,1023.03
2018-09-29T04:19:05.861Z,1023.12
2018-09-29T04:20:04.722Z,1023.09
2018-09-29T04:21:06.797Z,1023.11
2018-09-29T04:22:04.660Z,1023.10
2018-09-29T04:23:04.766Z,1023.13
2018-09-29T04:24:04.597Z,1023.16
2018-09-29T04:25:04.776Z,1023.14
2018-09-29T04:26:04.548Z,1023.18
2018-09-29T04:27:04.697Z,1023.14
2018-09-29T04:28:04.513Z,1023.14
2018-09-29T04:29:04.606Z,1023.13
2018-09-29T04:30:04.448Z,1023.20
2018-09-29T04:31:06.565Z,1023.19
2018-09-29T04:32:04.379Z,1023.20
2018-09-29T04:33:04.531Z,1023.17
2018-09-29T04:34:04.326Z,1023.18
2018-09-29T04:35:04.334Z,1023.10
2018-09-29T04:36:04.269Z,1023.14
2018-09-29T04:37:04.454Z,1023.11
2018-09-29T04:38:04.213Z,1023.13
2018-09-29T04:39:05.389Z,1023.13
2018-09-29T04:40:04.169Z,1023.12
2018-09-29T04:41:05.306Z,1023.16
2018-09-29T04:42:04.121Z,1023.18
2018-09-29T04:43:04.293Z,1023.19
2018-09-29T04:44:04.055Z,1023.24
2018-09-29T04:45:04.200Z,1023.18
2018-09-29T04:46:03.999Z,1023.17
2018-09-29T04:47:06.154Z,1023.11
2018-09-29T04:48:03.940Z,1023.17
2018-09-29T04:49:04.172Z,1023.16
2018-09-29T04:50:03.884Z,1023.15
2018-09-29T04:51:04.039Z,1023.16
2018-09-29T04:52:03.838Z,1023.19
2018-09-29T04:53:03.943Z,1023.24
2018-09-29T04:54:03.788Z,1023.26
2018-09-29T04:55:03.953Z,1023.27
2018-09-29T04:56:03.721Z,1023.26
2018-09-29T04:57:03.890Z,1023.27
2018-09-29T04:58:03.674Z,1023.29
2018-09-29T04:59:03.795Z,1023.29
2018-09-29T05:00:03.625Z,1023.28
2018-09-29T05:01:03.794Z,1023.27
2018-09-29T05:02:03.599Z,1023.25
2018-09-29T05:03:03.709Z,1023.24
2018-09-29T05:04:03.514Z,1023.22
2018-09-29T05:05:03.616Z,1023.24
2018-09-29T05:06:03.455Z,1023.25
2018-09-29T05:07:03.628Z,1023.19
2018-09-29T05:08:03.405Z,1023.23
2018-09-29T05:09:03.538Z,1023.22
2018-09-29T05:10:03.344Z,1023.23
2018-09-29T05:11:03.347Z,1023.23
2018-09-29T05:12:03.298Z,1023.25
2018-09-29T05:13:03.371Z,1023.26
2018-09-29T05:14:03.253Z,1023.28
2018-09-29T05:15:03.276Z,1023.24
2018-09-29T05:16:03.179Z,1023.29
2018-09-29T05:17:03.185Z,1023.28
2018-09-29T05:18:03.126Z,1023.24
2018-09-29T05:19:03.197Z,1023.24
2018-09-29T05:20:03.076Z,1023.26
2018-09-29T05:21:03.141Z,1023.22
2018-09-29T05:22:03.043Z,1023.19
2018-09-29T05:23:03.136Z,1023.18
2018-09-29T05:24:02.961Z,1023.15
2018-09-29T05:25:04.975Z,1023.18
2018-09-29T05:26:02.909Z,1023.18
2018-09-29T05:27:04.008Z,1023.17
2018-09-29T05:28:02.855Z,1023.16
2018-09-29T05:29:02.858Z,1023.16
2018-09-29T05:30:02.800Z,1023.12
2018-09-29T05:31:02.899Z,1023.12
2018-09-29T05:32:02.753Z,1023.15
2018-09-29T05:33:02.781Z,1023.21
2018-09-29T05:34:02.698Z,1023.20
2018-09-29T05:35:02.693Z,1023.18
2018-09-29T05:36:02.641Z,1023.16
2018-09-29T05:37:02.708Z,1023.17
2018-09-29T05:38:02.588Z,1023.14
2018-09-29T05:39:02.625Z,1023.18
2018-09-29T05:40:02.547Z,1023.15
2018-09-29T05:41:03.559Z,1023.17
2018-09-29T05:42:02.474Z,1023.18
2018-09-29T05:43:02.649Z,1023.22
2018-09-29T05:44:02.439Z,1023.19
2018-09-29T05:45:02.482Z,1023.24
2018-09-29T05:46:02.378Z,1023.31
2018-09-29T05:47:02.484Z,1023.27
2018-09-29T05:48:02.313Z,1023.29
2018-09-29T05:49:02.382Z,1023.28
2018-09-29T05:50:02.266Z,1023.26
2018-09-29T05:51:03.318Z,1023.25
2018-09-29T05:52:02.217Z,1023.31
2018-09-29T05:53:04.253Z,1023.27
2018-09-29T05:54:02.247Z,1023.26
2018-09-29T05:55:03.238Z,1023.30
2018-09-29T05:56:02.115Z,1023.33
2018-09-29T05:57:02.130Z,1023.33
2018-09-29T05:58:02.041Z,1023.38
2018-09-29T05:59:02.151Z,1023.43
2018-09-29T06:00:02.011Z,1023.41
2018-09-29T06:01:02.062Z,1023.45
2018-09-29T06:02:01.933Z,1023.44
2018-09-29T06:03:01.970Z,1023.41
2018-09-29T06:04:01.887Z,1023.48
2018-09-29T06:05:01.987Z,1023.52
2018-09-29T06:06:01.822Z,1023.49
2018-09-29T06:07:01.960Z,1023.54
2018-09-29T06:08:01.779Z,1023.51
2018-09-29T06:09:01.815Z,1023.48
2018-09-29T06:10:01.744Z,1023.47
2018-09-29T06:11:01.836Z,1023.52
2018-09-29T06:12:01.675Z,1023.52
2018-09-29T06:13:01.746Z,1023.53
2018-09-29T06:14:01.609Z,1023.54
2018-09-29T06:15:01.742Z,1023.51
2018-09-29T06:16:01.553Z,1023.52
2018-09-29T06:17:01.660Z,1023.54
2018-09-29T06:18:01.505Z,1023.47
2018-09-29T06:19:01.576Z,1023.47
2018-09-29T06:20:01.452Z,1023.44
2018-09-29T06:21:01.544Z,1023.44
2018-09-29T06:22:01.407Z,1023.40
2018-09-29T06:23:01.497Z,1023.47
2018-09-29T06:24:01.337Z,1023.42
2018-09-29T06:25:01.423Z,1023.45
2018-09-29T06:26:01.287Z,1023.42
2018-09-29T06:27:01.423Z,1023.45
2018-09-29T06:28:01.284Z,1023.43
2018-09-29T06:29:01.327Z,1023.45
2018-09-29T06:30:01.172Z,1023.44
2018-09-29T06:31:01.257Z,1023.44
2018-09-29T06:32:01.125Z,1023.41
2018-09-29T06:33:01.257Z,1023.36
2018-09-29T06:34:01.080Z,1023.34
2018-09-29T06:35:01.185Z,1023.34
2018-09-29T06:36:01.004Z,1023.36
2018-09-29T06:37:01.091Z,1023.37
2018-09-29T06:38:00.971Z,1023.36
2018-09-29T06:39:01.120Z,1023.38
2018-09-29T06:40:00.910Z,1023.41
2018-09-29T06:41:01.051Z,1023.37
2018-09-29T06:42:00.856Z,1023.40
2018-09-29T06:43:00.919Z,1023.40
2018-09-29T06:44:00.796Z,1023.45
2018-09-29T06:45:00.925Z,1023.48
2018-09-29T06:46:00.737Z,1023.47
2018-09-29T06:47:00.838Z,1023.48
2018-09-29T06:48:00.711Z,1023.46
2018-09-29T06:49:00.752Z,1023.45
2018-09-29T06:50:00.631Z,1023.45
2018-09-29T06:51:00.769Z,1023.44
2018-09-29T06:52:00.578Z,1023.48
2018-09-29T06:53:00.672Z,1023.53
2018-09-29T06:54:00.517Z,1023.54
2018-09-29T06:55:00.584Z,1023.55
2018-09-29T06:56:00.463Z,1023.56
2018-09-29T06:57:00.605Z,1023.55
2018-09-29T06:58:00.407Z,1023.52
2018-09-29T06:59:00.510Z,1023.54
2018-09-29T07:00:00.371Z,1023.56
2018-09-29T07:01:00.421Z,1023.56
2018-09-29T07:02:00.301Z,1023.54
2018-09-29T07:03:00.450Z,1023.62
2018-09-29T07:04:00.243Z,1023.60
2018-09-29T07:05:00.351Z,1023.63
2018-09-29T07:06:00.187Z,1023.60
2018-09-29T07:07:00.261Z,1023.58
2018-09-29T07:08:00.140Z,1023.59
2018-09-29T07:09:00.274Z,1023.64
2018-09-29T07:10:00.095Z,1023.64
2018-09-29T07:11:00.185Z,1023.63
2018-09-29T07:12:00.024Z,1023.63
2018-09-29T07:13:00.154Z,1023.60
2018-09-29T07:13:59.963Z,1023.59
2018-09-29T07:15:00.114Z,1023.59
2018-09-29T07:15:59.911Z,1023.62
2018-09-29T07:17:00.019Z,1023.61
2018-09-29T07:17:59.862Z,1023.64
2018-09-29T07:18:59.929Z,1023.63
2018-09-29T07:19:59.798Z,1023.64
2018-09-29T07:20:59.948Z,1023.60
2018-09-29T07:21:59.760Z,1023.65
2018-09-29T07:22:59.853Z,1023.62
2018-09-29T07:23:59.704Z,1023.70
2018-09-29T07:24:59.768Z,1023.66
2018-09-29T07:25:59.640Z,1023.64
2018-09-29T07:26:59.788Z,1023.67
2018-09-29T07:27:59.582Z,1023.68
2018-09-29T07:28:59.693Z,1023.67
2018-09-29T07:29:59.541Z,1023.64
2018-09-29T07:30:59.601Z,1023.66
2018-09-29T07:31:59.533Z,1023.65
2018-09-29T07:32:59.616Z,1023.66
2018-09-29T07:33:59.420Z,1023.60
2018-09-29T07:34:59.530Z,1023.61
2018-09-29T07:35:59.369Z,1023.62
2018-09-29T07:36:59.442Z,1023.65
2018-09-29T07:37:59.323Z,1023.65
2018-09-29T07:38:59.512Z,1023.67
2018-09-29T07:39:59.259Z,1023.69
2018-09-29T07:40:59.364Z,1023.67
2018-09-29T07:41:59.212Z,1023.62
2018-09-29T07:42:59.273Z,1023.59
2018-09-29T07:43:59.147Z,1023.62
2018-09-29T07:44:59.292Z,1023.61
2018-09-29T07:45:59.093Z,1023.64
2018-09-29T07:46:59.077Z,1023.65
2018-09-29T07:47:59.044Z,1023.61
2018-09-29T07:48:59.027Z,1023.65
2018-09-29T07:49:58.980Z,1023.60
2018-09-29T07:50:58.967Z,1023.62
2018-09-29T07:51:58.925Z,1023.57
2018-09-29T07:52:58.954Z,1023.59
2018-09-29T07:53:58.887Z,1023.56
2018-09-29T07:54:58.851Z,1023.51
2018-09-29T07:55:58.871Z,1023.58
2018-09-29T07:56:58.782Z,1023.61
2018-09-29T07:57:58.764Z,1023.60
2018-09-29T07:58:58.782Z,1023.66
2018-09-29T07:59:58.737Z,1023.66
2018-09-29T08:00:58.690Z,1023.63
2018-09-29T08:01:58.648Z,1023.64
2018-09-29T08:02:58.616Z,1023.67
2018-09-29T08:03:58.594Z,1023.66
2018-09-29T08:04:58.563Z,1023.69
2018-09-29T08:05:58.534Z,1023.70
2018-09-29T08:06:58.502Z,1023.69
2018-09-29T08:07:58.478Z,1023.69
2018-09-29T08:08:58.452Z,1023.68
2018-09-29T08:09:58.425Z,1023.70
2018-09-29T08:10:58.413Z,1023.68
2018-09-29T08:11:58.368Z,1023.70
2018-09-29T08:12:58.351Z,1023.71
2018-09-29T08:13:58.327Z,1023.76
2018-09-29T08:14:58.284Z,1023.68
2018-09-29T08:15:58.791Z,1023.71
2018-09-29T08:16:58.242Z,1023.67
2018-09-29T08:17:58.197Z,1023.70
2018-09-29T08:18:58.173Z,1023.68
2018-09-29T08:19:58.159Z,1023.69
2018-09-29T08:20:58.110Z,1023.67
2018-09-29T08:21:58.080Z,1023.68
2018-09-29T08:22:58.061Z,1023.68
2018-09-29T08:23:58.042Z,1023.62
2018-09-29T08:24:57.997Z,1023.63
2018-09-29T08:25:57.971Z,1023.63
2018-09-29T08:26:57.955Z,1023.65
2018-09-29T08:27:57.923Z,1023.59
2018-09-29T08:28:57.892Z,1023.55
2018-09-29T08:29:57.867Z,1023.60
2018-09-29T08:30:57.844Z,1023.56
2018-09-29T08:31:57.814Z,1023.57
2018-09-29T08:32:57.795Z,1023.60
2018-09-29T08:33:57.805Z,1023.66
2018-09-29T08:34:57.740Z,1023.64
2018-09-29T08:35:57.811Z,1023.64
2018-09-29T08:36:57.677Z,1023.65
2018-09-29T08:37:57.736Z,1023.66
2018-09-29T08:38:57.618Z,1023.66
2018-09-29T08:39:57.733Z,1023.64
2018-09-29T08:40:57.566Z,1023.61
2018-09-29T08:41:57.654Z,1023.63
2018-09-29T08:42:57.521Z,1023.60
2018-09-29T08:43:57.588Z,1023.64
2018-09-29T08:44:57.451Z,1023.61
2018-09-29T08:45:57.476Z,1023.59
2018-09-29T08:46:57.396Z,1023.62
2018-09-29T08:47:57.494Z,1023.61
2018-09-29T08:48:57.357Z,1023.61
2018-09-29T08:49:57.401Z,1023.58
2018-09-29T08:50:57.283Z,1023.58
2018-09-29T08:51:57.310Z,1023.57
2018-09-29T08:52:57.227Z,1023.61
2018-09-29T08:53:57.324Z,1023.63
2018-09-29T08:54:57.174Z,1023.66
2018-09-29T08:55:57.239Z,1023.58
2018-09-29T08:56:57.124Z,1023.64
2018-09-29T08:57:57.142Z,1023.61
2018-09-29T08:58:57.074Z,1023.63
2018-09-29T08:59:57.163Z,1023.58
2018-09-29T09:00:57.017Z,1023.56
2018-09-29T09:01:57.066Z,1023.59
2018-09-29T09:02:56.960Z,1023.59
2018-09-29T09:03:57.034Z,1023.57
2018-09-29T09:04:56.914Z,1023.60
2018-09-29T09:05:56.999Z,1023.56
2018-09-29T09:06:56.852Z,1023.58
2018-09-29T09:07:56.823Z,1023.53
2018-09-29T09:08:56.785Z,1023.53
2018-09-29T09:09:56.819Z,1023.52
2018-09-29T09:10:56.739Z,1023.49
2018-09-29T09:11:56.832Z,1023.49
2018-09-29T09:12:56.686Z,1023.52
2018-09-29T09:13:56.743Z,1023.50
2018-09-29T09:14:56.630Z,1023.46
2018-09-29T09:15:56.675Z,1023.51
2018-09-29T09:16:56.622Z,1023.49
2018-09-29T09:17:56.669Z,1023.47
2018-09-29T09:18:56.523Z,1023.40
2018-09-29T09:19:56.501Z,1023.41
2018-09-29T09:20:56.465Z,1023.42
2018-09-29T09:21:56.442Z,1023.42
2018-09-29T09:22:56.425Z,1023.38
2018-09-29T09:23:56.452Z,1023.41
2018-09-29T09:24:56.364Z,1023.43
2018-09-29T09:25:56.761Z,1023.41
2018-09-29T09:26:56.308Z,1023.40
2018-09-29T09:27:56.275Z,1023.34
2018-09-29T09:28:56.251Z,1023.37
2018-09-29T09:29:56.290Z,1023.39
2018-09-29T09:30:56.198Z,1023.33
2018-09-29T09:31:56.159Z,1023.38
2018-09-29T09:32:56.150Z,1023.35
2018-09-29T09:33:56.103Z,1023.29
2018-09-29T09:34:56.093Z,1023.27
2018-09-29T09:35:56.066Z,1023.30
2018-09-29T09:36:56.036Z,1023.33
2018-09-29T09:37:56.052Z,1023.31
2018-09-29T09:38:55.974Z,1023.31
2018-09-29T09:39:55.956Z,1023.27
2018-09-29T09:40:55.921Z,1023.27
2018-09-29T09:41:55.893Z,1023.23
2018-09-29T09:42:55.873Z,1023.25
2018-09-29T09:43:55.847Z,1023.24
2018-09-29T09:44:55.814Z,1023.25
2018-09-29T09:45:55.786Z,1023.29
2018-09-29T09:46:55.753Z,1023.32
2018-09-29T09:47:55.719Z,1023.28
2018-09-29T09:48:55.694Z,1023.27
2018-09-29T09:49:55.670Z,1023.25
2018-09-29T09:50:55.648Z,1023.27
2018-09-29T09:51:55.613Z,1023.24
2018-09-29T09:52:55.590Z,1023.24
2018-09-29T09:53:55.564Z,1023.21
2018-09-29T09:54:55.533Z,1023.24
2018-09-29T09:55:55.522Z,1023.16
2018-09-29T09:56:55.513Z,1023.17
2018-09-29T09:57:55.460Z,1023.13
2018-09-29T09:58:55.429Z,1023.11
2018-09-29T09:59:55.401Z,1023.14
2018-09-29T10:00:55.401Z,1023.12
2018-09-29T10:01:55.349Z,1023.17
2018-09-29T10:02:55.438Z,1023.16
2018-09-29T10:03:55.300Z,1023.15
2018-09-29T10:04:55.350Z,1023.12
2018-09-29T10:05:55.256Z,1023.18
2018-09-29T10:06:55.339Z,1023.15
2018-09-29T10:07:55.193Z,1023.11
2018-09-29T10:08:55.161Z,1023.15
2018-09-29T10:09:55.139Z,1023.12
2018-09-29T10:10:55.179Z,1023.13
2018-09-29T10:11:55.080Z,1023.08
2018-09-29T10:12:55.056Z,1023.06
2018-09-29T10:13:55.408Z,1023.03
2018-09-29T10:14:55.008Z,1023.03
2018-09-29T10:15:54.970Z,1023.02
2018-09-29T10:16:54.949Z,1023.00
2018-09-29T10:17:54.913Z,1023.01
2018-09-29T10:18:54.928Z,1022.94
2018-09-29T10:20:00.516Z,1022.95
2018-09-29T10:20:54.875Z,1022.97
2018-09-29T10:21:54.835Z,1022.93
2018-09-29T10:22:54.782Z,1022.89
2018-09-29T10:23:54.775Z,1022.91
2018-09-29T10:24:54.738Z,1022.86
2018-09-29T10:25:54.799Z,1022.84
2018-09-29T10:26:54.675Z,1022.82
2018-09-29T10:27:54.646Z,1022.78
2018-09-29T10:28:54.631Z,1022.80
2018-09-29T10:29:54.604Z,1022.76
2018-09-29T10:30:54.583Z,1022.76
2018-09-29T10:31:54.533Z,1022.78
2018-09-29T10:32:54.522Z,1022.73
2018-09-29T10:33:54.492Z,1022.72
2018-09-29T10:34:54.575Z,1022.72
2018-09-29T10:35:54.437Z,1022.70
2018-09-29T10:36:54.539Z,1022.68
2018-09-29T10:37:54.389Z,1022.68
2018-09-29T10:38:54.361Z,1022.60
2018-09-29T10:39:54.336Z,1022.63
2018-09-29T10:40:54.473Z,1022.58
2018-09-29T10:41:54.376Z,1022.61
2018-09-29T10:42:54.257Z,1022.58
2018-09-29T10:43:54.258Z,1022.55
2018-09-29T10:44:54.211Z,1022.53
2018-09-29T10:45:54.173Z,1022.58
2018-09-29T10:46:54.147Z,1022.61
2018-09-29T10:47:54.126Z,1022.58
2018-09-29T10:48:54.112Z,1022.56
2018-09-29T10:49:54.113Z,1022.51
2018-09-29T10:50:54.053Z,1022.52
2018-09-29T10:51:54.057Z,1022.50
2018-09-29T10:52:54.128Z,1022.49
2018-09-29T10:53:54.343Z,1022.49
2018-09-29T10:54:54.078Z,1022.49
2018-09-29T10:55:53.945Z,1022.49
2018-09-29T10:56:54.073Z,1022.41
2018-09-29T10:57:53.853Z,1022.38
2018-09-29T10:58:53.832Z,1022.37
2018-09-29T10:59:53.815Z,1022.34
2018-09-29T11:00:53.796Z,1022.36
2018-09-29T11:01:53.759Z,1022.32
2018-09-29T11:02:53.739Z,1022.39
2018-09-29T11:03:53.701Z,1022.36
2018-09-29T11:04:53.893Z,1022.37
2018-09-29T11:05:53.645Z,1022.35
2018-09-29T11:06:53.634Z,1022.36
2018-09-29T11:07:53.602Z,1022.33
2018-09-29T11:08:53.573Z,1022.30
2018-09-29T11:09:53.548Z,1022.31
2018-09-29T11:10:53.521Z,1022.28
2018-09-29T11:11:53.499Z,1022.31
2018-09-29T11:12:53.567Z,1022.29
2018-09-29T11:13:53.431Z,1022.26
2018-09-29T11:14:53.564Z,1022.30
2018-09-29T11:15:53.391Z,1022.20
2018-09-29T11:16:53.484Z,1022.18
2018-09-29T11:17:53.329Z,1022.19
2018-09-29T11:18:53.385Z,1022.13
2018-09-29T11:19:53.290Z,1022.09
2018-09-29T11:20:53.405Z,1022.09
2018-09-29T11:21:53.236Z,1022.07
2018-09-29T11:22:53.311Z,1022.03
2018-09-29T11:23:53.173Z,1022.04
2018-09-29T11:24:53.155Z,1022.00
2018-09-29T11:25:53.119Z,1021.98
2018-09-29T11:26:53.180Z,1021.96
2018-09-29T11:27:53.133Z,1021.96
2018-09-29T11:28:53.075Z,1021.93
2018-09-29T11:29:53.010Z,1021.89
2018-09-29T11:30:52.992Z,1021.93
2018-09-29T11:31:53.073Z,1021.85
2018-09-29T11:32:52.942Z,1021.88
2018-09-29T11:33:53.024Z,1021.85
2018-09-29T11:34:52.879Z,1021.81
2018-09-29T11:35:52.933Z,1021.77
2018-09-29T11:36:52.838Z,1021.76
2018-09-29T11:37:52.826Z,1021.71
2018-09-29T11:38:52.773Z,1021.70
2018-09-29T11:39:52.839Z,1021.69
2018-09-29T11:40:52.723Z,1021.68
2018-09-29T11:41:52.763Z,1021.70
2018-09-29T11:42:52.669Z,1021.72
2018-09-29T11:43:52.688Z,1021.69
2018-09-29T11:44:52.713Z,1021.66
2018-09-29T11:45:52.674Z,1021.61
2018-09-29T11:46:52.571Z,1021.64
2018-09-29T11:47:52.595Z,1021.61
2018-09-29T11:48:52.529Z,1021.65
2018-09-29T11:49:52.504Z,1021.62
2018-09-29T11:50:52.588Z,1021.62
2018-09-29T11:51:52.513Z,1021.61
2018-09-29T11:52:52.418Z,1021.59
2018-09-29T11:53:52.425Z,1021.56
2018-09-29T11:54:52.349Z,1021.55
2018-09-29T11:55:52.368Z,1021.52
2018-09-29T11:56:52.320Z,1021.51
2018-09-29T11:57:52.284Z,1021.46
2018-09-29T11:58:52.353Z,1021.43
2018-09-29T11:59:52.221Z,1021.42
2018-09-29T12:00:52.256Z,1021.43
2018-09-29T12:01:52.234Z,1021.51
2018-09-29T12:02:52.144Z,1021.47
2018-09-29T12:03:52.182Z,1021.39
2018-09-29T12:04:52.091Z,1021.42